Time;durP1;ratioP1;P1;durP2;ratioP2;P2;SDS_P1;SDS_P2;PMS_P1;PMS_P2;Temp;Humidity;BMP_temperature;BMP_pressure;BME280_temperature;BME280_humidity;BME280_pressure;Samples;Min_cycle;Max_cycle;Signal;HPM_P1;HPM_P2
2021/08/23 00:01:20;;;;;;;8.23;3.45;;;;;;;;;;4968292;28;20738;-81
2021/08/23 00:03:45;;;;;;;5.82;3.63;;;;;;;;;;4953517;28;20023;-82
2021/08/23 00:06:10;;;;;;;9.33;4.47;;;;;;;;;;4972119;28;20018;-80
2021/08/23 00:08:36;;;;;;;7.40;3.50;;;;;;;;;;4967689;28;20027;-80
2021/08/23 00:11:01;;;;;;;5.90;4.22;;;;;;;;;;4953905;28;20012;-80
2021/08/23 00:13:26;;;;;;;5.78;3.90;;;;;;;;;;4941628;29;20102;-81
2021/08/23 00:15:55;;;;;;;7.97;3.50;;;;;;;;;;4936952;29;20058;-81
2021/08/23 00:18:20;;;;;;;6.80;3.25;;;;;;;;;;4953766;28;20680;-81
2021/08/23 00:20:51;;;;;;;9.13;3.95;;;;;;;;;;4962803;28;20108;-81
2021/08/23 00:23:16;;;;;;;6.40;3.78;;;;;;;;;;4953316;28;20057;-81
2021/08/23 00:25:42;;;;;;;6.72;4.05;;;;;;;;;;4953707;28;20043;-80
2021/08/23 00:28:08;;;;;;;7.78;4.75;;;;;;;;;;4964836;28;20086;-81
2021/08/23 00:30:34;;;;;;;6.97;3.97;;;;;;;;;;4957655;28;20047;-80
2021/08/23 00:32:59;;;;;;;8.68;3.53;;;;;;;;;;4952791;28;20059;-81
2021/08/23 00:35:24;;;;;;;5.13;3.40;;;;;;;;;;4957210;28;20015;-81
2021/08/23 00:37:50;;;;;;;9.50;3.97;;;;;;;;;;4970661;28;20069;-81
2021/08/23 00:40:16;;;;;;;7.90;4.30;;;;;;;;;;4943145;28;20603;-81
2021/08/23 00:42:41;;;;;;;10.25;4.05;;;;;;;;;;4957618;28;20070;-82
2021/08/23 00:45:07;;;;;;;8.40;3.83;;;;;;;;;;4953079;28;20221;-82
2021/08/23 00:47:32;;;;;;;11.90;4.60;;;;;;;;;;4952472;28;20673;-81
2021/08/23 00:49:58;;;;;;;5.22;3.53;;;;;;;;;;4954491;28;20034;-81
2021/08/23 00:52:23;;;;;;;8.38;4.20;;;;;;;;;;4968554;28;20026;-81
2021/08/23 00:54:49;;;;;;;5.28;3.63;;;;;;;;;;4962560;28;20016;-81
2021/08/23 00:57:14;;;;;;;8.60;3.65;;;;;;;;;;4953656;28;20117;-81
2021/08/23 00:59:41;;;;;;;7.70;4.30;;;;;;;;;;4952966;28;20541;-80
2021/08/23 01:02:21;;;;;;;9.50;4.25;;;;;;;;;;4952073;28;20033;-81
2021/08/23 01:04:49;;;;;;;8.73;4.47;;;;;;;;;;4983853;28;20336;-80
2021/08/23 01:07:15;;;;;;;8.02;3.70;;;;;;;;;;4954239;28;20077;-81
2021/08/23 01:09:44;;;;;;;6.75;3.90;;;;;;;;;;4952458;28;20102;-80
2021/08/23 01:12:11;;;;;;;7.13;4.60;;;;;;;;;;4958882;28;20062;-80
2021/08/23 01:14:37;;;;;;;10.73;3.95;;;;;;;;;;4964934;28;20101;-80
2021/08/23 01:17:03;;;;;;;6.22;4.10;;;;;;;;;;4991492;28;20125;-79
2021/08/23 01:19:29;;;;;;;6.93;3.95;;;;;;;;;;4961935;28;20055;-80
2021/08/23 01:21:56;;;;;;;8.00;4.22;;;;;;;;;;4958928;28;20035;-81
2021/08/23 01:24:21;;;;;;;8.57;4.47;;;;;;;;;;4952045;28;20715;-81
2021/08/23 01:26:48;;;;;;;8.45;4.47;;;;;;;;;;4968832;28;20034;-81
2021/08/23 01:29:22;;;;;;;5.30;3.50;;;;;;;;;;4965541;28;20434;-81
2021/08/23 01:32:07;;;;;;;5.65;3.58;;;;;;;;;;4952079;28;20417;-81
2021/08/23 01:34:32;;;;;;;9.05;3.40;;;;;;;;;;4949361;28;20493;-81
2021/08/23 01:36:58;;;;;;;4.30;3.58;;;;;;;;;;4983136;28;20079;-81
2021/08/23 01:39:23;;;;;;;8.27;3.70;;;;;;;;;;4951951;28;20670;-81
2021/08/23 01:41:48;;;;;;;6.70;3.47;;;;;;;;;;4946476;28;20095;-80
2021/08/23 01:44:14;;;;;;;8.15;4.13;;;;;;;;;;4964280;28;20273;-81
2021/08/23 01:46:39;;;;;;;6.17;3.27;;;;;;;;;;4970694;28;20019;-81
2021/08/23 01:49:06;;;;;;;7.55;3.38;;;;;;;;;;4970817;28;20258;-80
2021/08/23 01:51:31;;;;;;;7.03;3.22;;;;;;;;;;4951123;28;20071;-81
2021/08/23 01:53:56;;;;;;;8.10;3.75;;;;;;;;;;4967984;28;20043;-81
2021/08/23 01:56:26;;;;;;;7.57;3.53;;;;;;;;;;4953433;28;20064;-81
2021/08/23 01:58:51;;;;;;;5.47;3.70;;;;;;;;;;4970541;28;20022;-81
2021/08/23 02:01:16;;;;;;;7.13;3.33;;;;;;;;;;4960194;28;20085;-81
2021/08/23 02:03:42;;;;;;;7.57;3.47;;;;;;;;;;4954850;28;20082;-82
2021/08/23 02:06:08;;;;;;;8.32;3.00;;;;;;;;;;4951920;28;20114;-81
2021/08/23 02:08:33;;;;;;;8.90;4.47;;;;;;;;;;4952041;28;20485;-81
2021/08/23 02:10:58;;;;;;;6.17;3.37;;;;;;;;;;4945555;28;20504;-81
2021/08/23 02:13:23;;;;;;;4.30;2.72;;;;;;;;;;4952520;28;20035;-82
2021/08/23 02:15:49;;;;;;;6.65;3.60;;;;;;;;;;4968888;28;20477;-81
2021/08/23 02:18:14;;;;;;;6.85;3.78;;;;;;;;;;4970464;28;20493;-81
2021/08/23 02:20:40;;;;;;;6.28;3.63;;;;;;;;;;4957984;28;20167;-80
2021/08/23 02:23:06;;;;;;;9.30;4.00;;;;;;;;;;4949379;28;20055;-80
2021/08/23 02:25:31;;;;;;;5.15;3.38;;;;;;;;;;4949844;28;20023;-81
2021/08/23 02:27:56;;;;;;;5.20;3.13;;;;;;;;;;4934229;29;20085;-81
2021/08/23 02:30:22;;;;;;;7.28;3.60;;;;;;;;;;4950561;28;20271;-81
2021/08/23 02:32:48;;;;;;;12.10;3.70;;;;;;;;;;4951785;28;20026;-81
2021/08/23 02:35:13;;;;;;;8.48;3.95;;;;;;;;;;4952219;28;20106;-81
2021/08/23 02:37:39;;;;;;;7.65;3.58;;;;;;;;;;4951542;28;20027;-81
2021/08/23 02:40:04;;;;;;;7.38;4.13;;;;;;;;;;4959689;28;20031;-80
2021/08/23 02:42:30;;;;;;;8.48;3.50;;;;;;;;;;4962961;28;20058;-80
2021/08/23 02:44:55;;;;;;;6.63;3.20;;;;;;;;;;4952660;28;20027;-80
2021/08/23 02:47:20;;;;;;;16.63;5.13;;;;;;;;;;4954189;28;20296;-80
2021/08/23 02:49:45;;;;;;;7.80;3.47;;;;;;;;;;4961948;28;20059;-81
2021/08/23 02:52:11;;;;;;;10.90;3.87;;;;;;;;;;4951231;28;20263;-80
2021/08/23 02:54:36;;;;;;;5.68;2.90;;;;;;;;;;4959354;28;20015;-80
2021/08/23 02:57:01;;;;;;;8.17;4.10;;;;;;;;;;4966617;28;20046;-81
2021/08/23 02:59:27;;;;;;;4.72;3.00;;;;;;;;;;4956507;28;20259;-81
2021/08/23 03:01:52;;;;;;;7.17;4.03;;;;;;;;;;4987662;28;20026;-81
2021/08/23 03:04:17;;;;;;;6.53;3.60;;;;;;;;;;4957110;28;20027;-81
2021/08/23 03:06:42;;;;;;;6.28;3.15;;;;;;;;;;4956348;28;20038;-82
2021/08/23 03:09:07;;;;;;;6.27;3.73;;;;;;;;;;4955062;28;20114;-82
2021/08/23 03:11:33;;;;;;;6.33;3.63;;;;;;;;;;4956935;28;20301;-82
2021/08/23 03:13:58;;;;;;;5.67;3.60;;;;;;;;;;4973686;28;20109;-82
2021/08/23 03:16:23;;;;;;;6.40;3.40;;;;;;;;;;4965824;28;20298;-82
2021/08/23 03:18:49;;;;;;;8.33;3.57;;;;;;;;;;4954721;28;20038;-82
2021/08/23 03:21:14;;;;;;;6.25;3.13;;;;;;;;;;4954335;28;20266;-81
2021/08/23 03:23:39;;;;;;;7.63;3.08;;;;;;;;;;4968218;28;20122;-81
2021/08/23 03:26:05;;;;;;;5.73;3.50;;;;;;;;;;4971949;28;20046;-80
2021/08/23 03:28:31;;;;;;;9.10;3.63;;;;;;;;;;4957743;28;20290;-81
2021/08/23 03:30:56;;;;;;;10.50;4.32;;;;;;;;;;4955241;28;20023;-80
2021/08/23 03:33:22;;;;;;;8.60;3.72;;;;;;;;;;4965481;28;20030;-81
2021/08/23 03:35:47;;;;;;;8.35;3.45;;;;;;;;;;4972876;28;20026;-81
2021/08/23 03:38:13;;;;;;;7.33;3.20;;;;;;;;;;4970678;28;20030;-80
2021/08/23 03:40:38;;;;;;;4.55;3.05;;;;;;;;;;4973190;28;20664;-80
2021/08/23 03:43:03;;;;;;;8.05;3.95;;;;;;;;;;4963832;28;20051;-81
2021/08/23 03:45:29;;;;;;;4.68;2.67;;;;;;;;;;4985003;28;20422;-80
2021/08/23 03:47:54;;;;;;;7.80;3.20;;;;;;;;;;4958131;28;20022;-80
2021/08/23 03:50:19;;;;;;;6.53;3.43;;;;;;;;;;4963680;28;20275;-81
2021/08/23 03:52:44;;;;;;;6.63;2.97;;;;;;;;;;4953700;28;20282;-80
2021/08/23 03:55:10;;;;;;;8.67;3.67;;;;;;;;;;4952957;28;20015;-81
2021/08/23 03:57:36;;;;;;;7.18;3.47;;;;;;;;;;4956937;28;20782;-81
2021/08/23 04:00:03;;;;;;;6.43;3.28;;;;;;;;;;4969462;28;20634;-81
2021/08/23 04:02:29;;;;;;;7.32;3.60;;;;;;;;;;4953883;28;20486;-80
2021/08/23 04:04:54;;;;;;;5.68;3.55;;;;;;;;;;4953548;28;20286;-81
2021/08/23 04:07:20;;;;;;;6.80;3.22;;;;;;;;;;4953699;28;20030;-81
2021/08/23 04:09:45;;;;;;;11.53;4.20;;;;;;;;;;4972915;28;20395;-80
2021/08/23 04:12:10;;;;;;;5.37;3.17;;;;;;;;;;4972202;28;20254;-81
2021/08/23 04:14:36;;;;;;;6.93;3.13;;;;;;;;;;4960337;28;20267;-80
2021/08/23 04:17:01;;;;;;;10.15;3.67;;;;;;;;;;4954147;28;20313;-81
2021/08/23 04:19:28;;;;;;;5.07;3.30;;;;;;;;;;4971030;28;20034;-81
2021/08/23 04:21:53;;;;;;;7.07;3.78;;;;;;;;;;4958968;28;20381;-82
2021/08/23 04:24:18;;;;;;;6.63;3.80;;;;;;;;;;4956344;28;20030;-81
2021/08/23 04:26:44;;;;;;;5.90;3.60;;;;;;;;;;4966069;28;20042;-81
2021/08/23 04:29:09;;;;;;;5.93;3.65;;;;;;;;;;4955323;28;20029;-81
2021/08/23 04:31:34;;;;;;;5.20;3.33;;;;;;;;;;4954040;28;20029;-81
2021/08/23 04:34:00;;;;;;;7.33;3.93;;;;;;;;;;4952263;28;20286;-81
2021/08/23 04:36:25;;;;;;;9.45;3.58;;;;;;;;;;4955037;28;20753;-81
2021/08/23 04:38:50;;;;;;;7.60;3.78;;;;;;;;;;4972689;28;20031;-80
2021/08/23 04:41:16;;;;;;;5.83;3.50;;;;;;;;;;4972503;28;20050;-80
2021/08/23 04:43:41;;;;;;;6.10;3.00;;;;;;;;;;4969215;28;20775;-80
2021/08/23 04:46:06;;;;;;;5.88;3.33;;;;;;;;;;4957406;28;20913;-80
2021/08/23 04:48:31;;;;;;;6.83;4.17;;;;;;;;;;4972320;28;20544;-80
2021/08/23 04:50:57;;;;;;;6.43;2.85;;;;;;;;;;4966147;28;20353;-80
2021/08/23 04:53:22;;;;;;;5.18;2.55;;;;;;;;;;4957898;28;20037;-79
2021/08/23 04:55:47;;;;;;;6.28;2.55;;;;;;;;;;4952626;28;20034;-80
2021/08/23 04:58:13;;;;;;;8.77;3.97;;;;;;;;;;4965357;28;20038;-80
2021/08/23 05:00:38;;;;;;;7.40;3.40;;;;;;;;;;4962979;28;20058;-82
2021/08/23 05:03:03;;;;;;;6.93;3.20;;;;;;;;;;4949293;28;20259;-80
2021/08/23 05:05:28;;;;;;;8.43;3.90;;;;;;;;;;4952894;28;20023;-79
2021/08/23 05:07:53;;;;;;;4.37;2.80;;;;;;;;;;4956853;28;20745;-79
2021/08/23 05:10:19;;;;;;;5.60;2.57;;;;;;;;;;4984777;28;20031;-79
2021/08/23 05:12:44;;;;;;;5.75;2.92;;;;;;;;;;4952903;28;20286;-79
2021/08/23 05:15:10;;;;;;;10.40;4.80;;;;;;;;;;4956126;28;20027;-80
2021/08/23 05:17:35;;;;;;;5.95;2.97;;;;;;;;;;4952804;28;20274;-80
2021/08/23 05:20:00;;;;;;;5.33;2.90;;;;;;;;;;4952158;28;20351;-80
2021/08/23 05:22:26;;;;;;;5.97;3.53;;;;;;;;;;4968336;28;20027;-80
2021/08/23 05:24:51;;;;;;;8.57;3.67;;;;;;;;;;4952276;28;20274;-80
2021/08/23 05:27:19;;;;;;;6.87;3.50;;;;;;;;;;4956318;28;20545;-81
2021/08/23 05:29:44;;;;;;;9.52;3.35;;;;;;;;;;4960307;28;20780;-82
2021/08/23 05:32:10;;;;;;;9.48;3.33;;;;;;;;;;4967486;28;20023;-80
2021/08/23 05:34:35;;;;;;;5.88;3.60;;;;;;;;;;4970970;28;20138;-81
2021/08/23 05:37:00;;;;;;;8.25;3.20;;;;;;;;;;4955270;28;20470;-82
2021/08/23 05:39:25;;;;;;;9.77;3.67;;;;;;;;;;4951800;28;20024;-81
2021/08/23 05:41:51;;;;;;;5.50;3.35;;;;;;;;;;4966999;28;20138;-81
2021/08/23 05:44:16;;;;;;;4.77;2.73;;;;;;;;;;4970770;28;20027;-81
2021/08/23 05:46:41;;;;;;;8.52;3.92;;;;;;;;;;4967814;28;20086;-81
2021/08/23 05:49:07;;;;;;;7.97;3.50;;;;;;;;;;4953959;28;20009;-81
2021/08/23 05:51:32;;;;;;;5.80;3.43;;;;;;;;;;4953384;28;20274;-81
2021/08/23 05:53:57;;;;;;;7.87;3.43;;;;;;;;;;5000343;28;20350;-81
2021/08/23 05:56:22;;;;;;;6.03;3.57;;;;;;;;;;4951602;28;20039;-81
2021/08/23 05:58:47;;;;;;;5.93;2.90;;;;;;;;;;4954801;28;20290;-81
2021/08/23 06:01:13;;;;;;;7.80;3.50;;;;;;;;;;4960655;28;20282;-81
2021/08/23 06:03:38;;;;;;;9.10;3.97;;;;;;;;;;4995410;28;20270;-81
2021/08/23 06:06:06;;;;;;;6.43;4.00;;;;;;;;;;4957357;28;20289;-80
2021/08/23 06:08:33;;;;;;;6.93;4.13;;;;;;;;;;4987733;28;20274;-81
2021/08/23 06:10:58;;;;;;;5.95;4.40;;;;;;;;;;4963104;28;20023;-82
2021/08/23 06:13:23;;;;;;;5.85;3.42;;;;;;;;;;4970159;28;20433;-81
2021/08/23 06:15:49;;;;;;;16.70;12.37;;;;;;;;;;4964433;28;20763;-81
2021/08/23 06:18:14;;;;;;;23.27;20.40;;;;;;;;;;4951228;28;20139;-80
2021/08/23 06:20:39;;;;;;;12.18;7.78;;;;;;;;;;4961913;28;20015;-80
2021/08/23 06:23:05;;;;;;;6.53;4.23;;;;;;;;;;4965054;28;20039;-79
2021/08/23 06:25:30;;;;;;;6.57;3.23;;;;;;;;;;4949127;28;20274;-80
2021/08/23 06:27:55;;;;;;;10.55;4.00;;;;;;;;;;4958444;28;20279;-79
2021/08/23 06:30:20;;;;;;;8.07;3.50;;;;;;;;;;4950583;28;20027;-80
2021/08/23 06:32:45;;;;;;;6.30;3.30;;;;;;;;;;4967734;28;20185;-79
2021/08/23 06:35:11;;;;;;;9.43;3.43;;;;;;;;;;4970450;28;20022;-79
2021/08/23 06:37:38;;;;;;;8.05;4.20;;;;;;;;;;4969492;28;20329;-80
2021/08/23 06:40:08;;;;;;;4.85;3.05;;;;;;;;;;4957800;28;20405;-78
2021/08/23 06:42:33;;;;;;;7.03;4.07;;;;;;;;;;4968121;28;21262;-78
2021/08/23 06:44:58;;;;;;;5.78;3.90;;;;;;;;;;4959370;28;20023;-78
2021/08/23 06:47:24;;;;;;;7.90;3.60;;;;;;;;;;4955610;28;20027;-80
2021/08/23 06:49:49;;;;;;;10.37;4.87;;;;;;;;;;4954074;28;20026;-79
2021/08/23 06:52:14;;;;;;;21.13;16.70;;;;;;;;;;4953946;28;20812;-79
2021/08/23 06:54:39;;;;;;;8.67;5.00;;;;;;;;;;4960151;28;20020;-80
2021/08/23 06:57:06;;;;;;;6.97;4.10;;;;;;;;;;4955804;28;20023;-80
2021/08/23 06:59:31;;;;;;;7.82;3.92;;;;;;;;;;4958023;28;20614;-79
2021/08/23 07:01:57;;;;;;;6.93;3.53;;;;;;;;;;4960015;28;20064;-79
2021/08/23 07:04:22;;;;;;;7.10;3.40;;;;;;;;;;4955787;28;20090;-79
2021/08/23 07:06:47;;;;;;;8.37;3.43;;;;;;;;;;4955729;28;20023;-77
2021/08/23 07:09:13;;;;;;;6.13;3.75;;;;;;;;;;4953165;28;20270;-79
2021/08/23 07:11:38;;;;;;;5.32;3.30;;;;;;;;;;4958225;28;20019;-78
2021/08/23 07:14:03;;;;;;;6.07;3.13;;;;;;;;;;4973254;28;20030;-80
2021/08/23 07:16:28;;;;;;;7.85;3.10;;;;;;;;;;4964012;28;20027;-78
2021/08/23 07:18:54;;;;;;;8.17;3.10;;;;;;;;;;4954506;28;20020;-78
2021/08/23 07:21:19;;;;;;;6.63;2.95;;;;;;;;;;4962036;28;20421;-78
2021/08/23 07:23:44;;;;;;;6.53;3.25;;;;;;;;;;4954561;28;20047;-78
2021/08/23 07:26:10;;;;;;;6.13;3.30;;;;;;;;;;4955023;28;20024;-79
2021/08/23 07:28:35;;;;;;;5.73;3.17;;;;;;;;;;4965192;28;20019;-78
2021/08/23 07:31:01;;;;;;;5.67;3.70;;;;;;;;;;4955492;28;20267;-78
2021/08/23 07:33:26;;;;;;;7.78;2.92;;;;;;;;;;4960885;28;20277;-79
2021/08/23 07:35:51;;;;;;;7.60;3.92;;;;;;;;;;4965497;28;20033;-78
2021/08/23 07:38:17;;;;;;;10.50;4.22;;;;;;;;;;4964269;28;20110;-79
2021/08/23 07:40:42;;;;;;;4.60;2.95;;;;;;;;;;4969750;28;20026;-78
2021/08/23 07:43:07;;;;;;;5.97;2.63;;;;;;;;;;4965602;28;20047;-78
2021/08/23 07:45:34;;;;;;;8.13;2.83;;;;;;;;;;4955769;28;20031;-79
2021/08/23 07:47:59;;;;;;;10.18;3.20;;;;;;;;;;4953352;28;20027;-79
2021/08/23 07:50:25;;;;;;;4.43;2.83;;;;;;;;;;4957652;28;20092;-79
2021/08/23 07:52:50;;;;;;;8.35;2.55;;;;;;;;;;4960456;28;20019;-79
2021/08/23 07:55:16;;;;;;;5.87;2.70;;;;;;;;;;4954547;28;20031;-79
2021/08/23 07:57:45;;;;;;;7.03;3.42;;;;;;;;;;4958275;28;20322;-79
2021/08/23 08:00:11;;;;;;;8.23;3.10;;;;;;;;;;4960371;28;20539;-79
2021/08/23 08:02:36;;;;;;;6.80;3.38;;;;;;;;;;4952756;28;20440;-79
2021/08/23 08:05:01;;;;;;;7.87;3.43;;;;;;;;;;4966449;28;20105;-79
2021/08/23 08:07:27;;;;;;;4.47;2.67;;;;;;;;;;4952749;28;20302;-79
2021/08/23 08:09:52;;;;;;;6.13;3.53;;;;;;;;;;4965382;28;20026;-79
2021/08/23 08:12:17;;;;;;;8.17;3.27;;;;;;;;;;4953862;28;20769;-79
2021/08/23 08:14:42;;;;;;;8.73;3.73;;;;;;;;;;4966888;28;20270;-78
2021/08/23 08:17:07;;;;;;;4.70;3.03;;;;;;;;;;4960692;28;20030;-79
2021/08/23 08:19:33;;;;;;;8.50;3.67;;;;;;;;;;4954478;28;20167;-79
2021/08/23 08:22:04;;;;;;;7.93;4.03;;;;;;;;;;4966027;28;20042;-78
2021/08/23 08:24:29;;;;;;;8.88;3.80;;;;;;;;;;4954614;28;20030;-80
2021/08/23 08:26:55;;;;;;;8.20;3.38;;;;;;;;;;4964560;28;20050;-78
2021/08/23 08:29:20;;;;;;;7.17;3.50;;;;;;;;;;4953395;28;20018;-80
2021/08/23 08:31:46;;;;;;;4.53;2.80;;;;;;;;;;4952878;28;20266;-84
2021/08/23 08:34:12;;;;;;;9.90;3.38;;;;;;;;;;4961236;28;20368;-84
2021/08/23 08:36:37;;;;;;;5.50;3.25;;;;;;;;;;4964813;28;20110;-83
2021/08/23 08:39:03;;;;;;;5.87;3.23;;;;;;;;;;4954674;28;20051;-84
2021/08/23 08:41:30;;;;;;;3.00;2.55;;;;;;;;;;4961300;28;20126;-83
2021/08/23 08:43:55;;;;;;;6.72;3.15;;;;;;;;;;4956468;28;20117;-81
2021/08/23 08:46:20;;;;;;;5.03;3.15;;;;;;;;;;4989835;28;20541;-82
2021/08/23 08:48:46;;;;;;;4.43;3.00;;;;;;;;;;4954176;28;20157;-81
2021/08/23 08:51:12;;;;;;;4.80;2.75;;;;;;;;;;4953339;28;20042;-82
2021/08/23 08:53:40;;;;;;;6.57;3.65;;;;;;;;;;4962819;28;20057;-82
2021/08/23 08:56:05;;;;;;;6.57;2.90;;;;;;;;;;5001212;28;20463;-82
2021/08/23 08:58:31;;;;;;;8.15;3.15;;;;;;;;;;4962017;28;20027;-82
2021/08/23 09:00:56;;;;;;;9.25;3.90;;;;;;;;;;4952196;28;20121;-82
2021/08/23 09:03:26;;;;;;;6.13;3.13;;;;;;;;;;4967687;28;20027;-82
2021/08/23 09:05:58;;;;;;;4.78;3.00;;;;;;;;;;4955634;28;20524;-82
2021/08/23 09:08:28;;;;;;;29.13;21.35;;;;;;;;;;4954309;28;20373;-82
2021/08/23 09:10:54;;;;;;;13.70;9.05;;;;;;;;;;4959408;28;20727;-82
2021/08/23 09:13:19;;;;;;;10.15;4.00;;;;;;;;;;4961739;28;20102;-84
2021/08/23 09:15:55;;;;;;;8.77;3.37;;;;;;;;;;4951815;28;20023;-82
2021/08/23 09:18:22;;;;;;;7.15;3.20;;;;;;;;;;4965564;28;20640;-84
2021/08/23 09:20:55;;;;;;;7.28;3.00;;;;;;;;;;4955926;28;20023;-82
2021/08/23 09:23:21;;;;;;;5.55;3.47;;;;;;;;;;4953920;28;21351;-84
2021/08/23 09:25:46;;;;;;;7.07;2.78;;;;;;;;;;4957812;28;20034;-83
2021/08/23 09:28:11;;;;;;;10.52;3.72;;;;;;;;;;4960228;28;20082;-83
2021/08/23 09:30:37;;;;;;;5.95;3.08;;;;;;;;;;4952175;28;20023;-84
2021/08/23 09:33:03;;;;;;;4.53;3.10;;;;;;;;;;4957084;28;20046;-83
2021/08/23 09:35:36;;;;;;;6.80;3.08;;;;;;;;;;4971691;28;20373;-83
2021/08/23 09:38:06;;;;;;;4.82;3.25;;;;;;;;;;4951879;28;20030;-84
2021/08/23 09:40:31;;;;;;;5.75;3.38;;;;;;;;;;4952187;28;20578;-84
2021/08/23 09:43:08;;;;;;;8.80;3.17;;;;;;;;;;4951069;28;20142;-83
2021/08/23 09:45:33;;;;;;;9.55;3.33;;;;;;;;;;4951607;28;20470;-83
2021/08/23 09:48:04;;;;;;;6.35;3.58;;;;;;;;;;4947927;28;20054;-83
2021/08/23 09:50:38;;;;;;;5.55;3.05;;;;;;;;;;4981129;28;20054;-84
2021/08/23 09:53:07;;;;;;;7.65;3.35;;;;;;;;;;4948479;29;20034;-81
2021/08/23 09:55:34;;;;;;;6.65;2.92;;;;;;;;;;4951786;28;20015;-81
2021/08/23 09:57:59;;;;;;;5.38;2.78;;;;;;;;;;4951225;28;20484;-81
2021/08/23 10:00:24;;;;;;;5.53;3.25;;;;;;;;;;4951355;28;20054;-82
2021/08/23 10:02:50;;;;;;;6.82;3.03;;;;;;;;;;4951984;29;20429;-81
2021/08/23 10:05:19;;;;;;;8.15;3.70;;;;;;;;;;4952067;28;20084;-82
2021/08/23 10:07:45;;;;;;;5.28;3.20;;;;;;;;;;4949308;28;20381;-83
2021/08/23 10:10:10;;;;;;;8.35;3.90;;;;;;;;;;4951631;28;20027;-83
2021/08/23 10:12:36;;;;;;;11.27;3.20;;;;;;;;;;4951375;28;20024;-81
2021/08/23 10:15:01;;;;;;;5.70;2.72;;;;;;;;;;4951222;29;20020;-82
2021/08/23 10:17:28;;;;;;;7.82;4.13;;;;;;;;;;4950679;29;20110;-83
2021/08/23 10:19:53;;;;;;;7.63;3.92;;;;;;;;;;4982261;28;20434;-83
2021/08/23 10:22:19;;;;;;;7.25;3.97;;;;;;;;;;4951271;28;20078;-83
2021/08/23 10:24:46;;;;;;;9.77;4.32;;;;;;;;;;4951913;28;20025;-83
2021/08/23 10:27:20;;;;;;;8.70;3.75;;;;;;;;;;4950610;28;20485;-83
2021/08/23 10:29:47;;;;;;;7.18;3.60;;;;;;;;;;4950362;28;20367;-83
2021/08/23 10:32:13;;;;;;;9.35;4.38;;;;;;;;;;4950942;28;20359;-84
2021/08/23 10:34:38;;;;;;;7.63;4.00;;;;;;;;;;4951594;29;20043;-83
2021/08/23 10:37:14;;;;;;;7.05;3.47;;;;;;;;;;4950245;29;20259;-84
2021/08/23 10:39:40;;;;;;;8.73;3.80;;;;;;;;;;4949672;29;20378;-84
2021/08/23 10:42:09;;;;;;;10.30;7.23;;;;;;;;;;4961291;28;20058;-84
2021/08/23 10:44:35;;;;;;;8.50;5.03;;;;;;;;;;4970733;28;20420;-84
2021/08/23 10:47:10;;;;;;;7.03;3.80;;;;;;;;;;4969750;28;20026;-84
2021/08/23 10:49:40;;;;;;;7.95;3.88;;;;;;;;;;4966050;28;20397;-83
2021/08/23 10:52:05;;;;;;;5.90;3.90;;;;;;;;;;4964750;28;20027;-84
2021/08/23 10:54:38;;;;;;;6.03;3.78;;;;;;;;;;4970213;28;20385;-82
2021/08/23 10:57:05;;;;;;;7.38;3.53;;;;;;;;;;4962070;28;20385;-83
2021/08/23 10:59:38;;;;;;;5.28;3.58;;;;;;;;;;4970724;28;20371;-82
2021/08/23 11:02:03;;;;;;;10.95;3.58;;;;;;;;;;4966755;28;20373;-82
2021/08/23 11:04:30;;;;;;;5.47;3.53;;;;;;;;;;4970746;28;20022;-82
2021/08/23 11:06:55;;;;;;;6.30;3.80;;;;;;;;;;4972075;28;20033;-81
2021/08/23 11:09:29;;;;;;;7.43;3.87;;;;;;;;;;4969685;28;20027;-81
2021/08/23 11:12:04;;;;;;;6.68;3.28;;;;;;;;;;4985507;28;20624;-82
2021/08/23 11:14:40;;;;;;;3.03;2.72;;;;;;;;;;4970797;28;20484;-82
2021/08/23 11:17:06;;;;;;;5.45;3.45;;;;;;;;;;4970353;28;20394;-81
2021/08/23 11:19:36;;;;;;;4.78;2.97;;;;;;;;;;4970728;28;20026;-81
2021/08/23 11:22:02;;;;;;;3.70;2.90;;;;;;;;;;4969953;28;20369;-81
2021/08/23 11:24:31;;;;;;;5.65;3.30;;;;;;;;;;4972886;28;20515;-81
2021/08/23 11:27:01;;;;;;;5.45;3.28;;;;;;;;;;4973740;28;20030;-82
2021/08/23 11:29:32;;;;;;;4.88;3.13;;;;;;;;;;4973793;28;20046;-82
2021/08/23 11:31:58;;;;;;;4.25;3.20;;;;;;;;;;4955971;28;20050;-83
2021/08/23 11:34:25;;;;;;;5.25;3.17;;;;;;;;;;4977489;28;20420;-82
2021/08/23 11:36:51;;;;;;;4.95;2.75;;;;;;;;;;4975295;28;20023;-82
2021/08/23 11:39:16;;;;;;;3.85;2.60;;;;;;;;;;4973643;28;20657;-82
2021/08/23 11:41:41;;;;;;;4.88;2.78;;;;;;;;;;4971578;28;20370;-83
2021/08/23 11:44:06;;;;;;;4.70;2.73;;;;;;;;;;4959034;28;20677;-81
2021/08/23 11:46:32;;;;;;;4.67;2.80;;;;;;;;;;4960615;28;20812;-87
2021/08/23 11:48:57;;;;;;;6.10;3.00;;;;;;;;;;4967200;28;20259;-85
2021/08/23 11:51:30;;;;;;;4.20;2.45;;;;;;;;;;4957266;28;20351;-82
2021/08/23 11:53:56;;;;;;;3.47;2.60;;;;;;;;;;4956515;28;20034;-82
2021/08/23 11:56:21;;;;;;;4.50;2.65;;;;;;;;;;4960674;28;20440;-82
2021/08/23 11:58:47;;;;;;;4.87;3.00;;;;;;;;;;4959719;28;20023;-82
2021/08/23 12:01:13;;;;;;;5.30;2.65;;;;;;;;;;4953038;28;20341;-81
2021/08/23 12:03:38;;;;;;;4.65;2.70;;;;;;;;;;4953971;28;20073;-81
2021/08/23 12:06:05;;;;;;;3.88;2.63;;;;;;;;;;4966213;28;20023;-80
2021/08/23 12:08:32;;;;;;;3.03;2.30;;;;;;;;;;4957957;28;20023;-81
2021/08/23 12:10:58;;;;;;;3.90;2.53;;;;;;;;;;4998474;28;20027;-82
2021/08/23 12:13:34;;;;;;;4.55;2.72;;;;;;;;;;4965873;28;20177;-85
2021/08/23 12:16:03;;;;;;;6.78;3.05;;;;;;;;;;4954830;28;20094;-89
2021/08/23 12:18:40;;;;;;;5.75;2.67;;;;;;;;;;4951695;28;20016;-82
2021/08/23 12:21:12;;;;;;;3.00;2.45;;;;;;;;;;4948290;28;20027;-81
2021/08/23 12:23:57;;;;;;;4.38;2.70;;;;;;;;;;4954041;28;20106;-81
2021/08/23 12:26:23;;;;;;;3.35;2.40;;;;;;;;;;4954804;28;20045;-84
2021/08/23 12:28:49;;;;;;;5.38;2.67;;;;;;;;;;4971741;28;20409;-90
2021/08/23 12:31:15;;;;;;;5.35;2.35;;;;;;;;;;4994686;28;20038;-91
2021/08/23 12:33:41;;;;;;;4.53;2.22;;;;;;;;;;4968244;28;20015;-89
2021/08/23 12:36:06;;;;;;;5.15;2.30;;;;;;;;;;4959321;28;20090;-87
2021/08/23 12:38:32;;;;;;;6.13;2.78;;;;;;;;;;4952421;28;20565;-86
2021/08/23 12:40:57;;;;;;;2.55;1.90;;;;;;;;;;4953414;28;20054;-88
2021/08/23 12:43:57;;;;;;;3.78;2.13;;;;;;;;;;4961128;28;20054;-93
2021/08/23 12:46:32;;;;;;;;;;;;;;;;;;;;;
2021/08/23 12:49:20;;;;;;;3.20;2.20;;;;;;;;;;4941895;28;20043;-91
2021/08/23 12:51:53;;;;;;;3.75;2.00;;;;;;;;;;4973547;28;20023;-93
2021/08/23 12:54:20;;;;;;;4.80;3.35;;;;;;;;;;4961673;28;20020;-84
2021/08/23 12:56:48;;;;;;;9.02;6.60;;;;;;;;;;4957771;28;20035;-88
2021/08/23 12:59:17;;;;;;;4.80;2.58;;;;;;;;;;4963430;28;20429;-83
2021/08/23 13:01:51;;;;;;;3.80;2.10;;;;;;;;;;4954901;28;20029;-92
2021/08/23 13:04:19;;;;;;;3.60;2.00;;;;;;;;;;4962220;28;20082;-90
2021/08/23 13:06:46;;;;;;;4.78;2.15;;;;;;;;;;4936294;29;20031;-89
2021/08/23 13:09:12;;;;;;;2.58;1.92;;;;;;;;;;4955535;28;20089;-88
2021/08/23 13:11:37;;;;;;;3.75;2.17;;;;;;;;;;4964496;28;20469;-88
2021/08/23 13:14:03;;;;;;;4.55;1.90;;;;;;;;;;4970492;28;20015;-88
2021/08/23 13:16:30;;;;;;;5.45;2.45;;;;;;;;;;4960282;28;21004;-87
2021/08/23 13:18:57;;;;;;;4.05;2.10;;;;;;;;;;4964145;28;20094;-85
2021/08/23 13:21:23;;;;;;;3.75;2.10;;;;;;;;;;4943833;28;20249;-88
2021/08/23 13:23:48;;;;;;;3.28;2.00;;;;;;;;;;4965136;28;20031;-87
2021/08/23 13:26:14;;;;;;;3.35;2.17;;;;;;;;;;4968371;28;20540;-88
2021/08/23 13:28:39;;;;;;;2.28;1.65;;;;;;;;;;4957463;28;20031;-82
2021/08/23 13:31:04;;;;;;;2.53;1.67;;;;;;;;;;4952750;28;20039;-88
2021/08/23 13:37:02;;;;;;;3.30;2.00;;;;;;;;;;4910407;28;20099;-87
2021/08/23 13:39:27;;;;;;;2.08;1.80;;;;;;;;;;4953387;28;20047;-85
2021/08/23 13:41:53;;;;;;;13.95;10.63;;;;;;;;;;4955140;28;20489;-85
2021/08/23 13:44:18;;;;;;;7.63;4.50;;;;;;;;;;4959495;28;20029;-85
2021/08/23 13:46:43;;;;;;;3.53;2.45;;;;;;;;;;4953327;28;20070;-86
2021/08/23 13:49:09;;;;;;;3.58;2.15;;;;;;;;;;4952412;28;20012;-86
2021/08/23 13:51:34;;;;;;;3.07;2.07;;;;;;;;;;4964601;28;20031;-88
2021/08/23 13:54:00;;;;;;;3.17;2.38;;;;;;;;;;4965274;28;20262;-88
2021/08/23 13:56:25;;;;;;;2.35;2.08;;;;;;;;;;4954549;28;20086;-85
2021/08/23 13:58:56;;;;;;;3.78;2.67;;;;;;;;;;4952142;28;20031;-84
2021/08/23 14:01:22;;;;;;;4.22;2.42;;;;;;;;;;4952318;28;20035;-84
2021/08/23 14:03:47;;;;;;;4.05;2.40;;;;;;;;;;4961298;28;20099;-83
2021/08/23 14:06:12;;;;;;;4.90;2.40;;;;;;;;;;4959224;28;20019;-85
2021/08/23 14:12:02;;;;;;;3.05;1.95;;;;;;;;;;4960258;28;20031;-89
2021/08/23 14:21:41;;;;;;;4.47;2.60;;;;;;;;;;4892472;29;20074;-87
2021/08/23 14:24:06;;;;;;;3.88;2.30;;;;;;;;;;4892302;29;20029;-89
2021/08/23 14:26:32;;;;;;;4.38;2.30;;;;;;;;;;4890601;29;20515;-85
2021/08/23 14:28:58;;;;;;;4.20;2.55;;;;;;;;;;4885317;29;20502;-82
2021/08/23 14:31:23;;;;;;;10.23;5.88;;;;;;;;;;4865812;29;20021;-81
2021/08/23 14:33:48;;;;;;;4.73;3.30;;;;;;;;;;4951207;28;20093;-81
2021/08/23 14:36:14;;;;;;;3.63;2.78;;;;;;;;;;4954343;28;20035;-80
2021/08/23 14:38:40;;;;;;;7.15;2.88;;;;;;;;;;4950937;28;20501;-80
2021/08/23 14:41:05;;;;;;;4.68;2.85;;;;;;;;;;4951440;28;20026;-80
2021/08/23 14:43:30;;;;;;;5.55;2.88;;;;;;;;;;4951772;28;20027;-83
2021/08/23 14:45:56;;;;;;;6.07;2.97;;;;;;;;;;4952239;28;20086;-81
2021/08/23 14:48:21;;;;;;;3.60;2.70;;;;;;;;;;4955712;28;20039;-82
2021/08/23 14:50:47;;;;;;;4.05;2.85;;;;;;;;;;4952604;28;20378;-77
2021/08/23 14:53:12;;;;;;;3.72;2.95;;;;;;;;;;4955833;28;20413;-78